Aérodrome :
LOGIN :

S'inscrire | Disclaimer

   EN    FR    IT 

 










Légende :    VFR   VFR Marginal   IFR   IFR Intensif   IFR Très Intensif
Visi : 
Plafond : 
>= 8 km
>= 3000ft
5 à 8 km
1000 à 3000 ft
1500m à 5 km
500 à 1000 ft
800 à 1500m
200 à 500 ft
< 800m
< 200 ft
Symboles :   Orages  Brouillard  Fortes neiges  Fortes précipitations  Vent > 20 kt
SIGMETs :   Divers  Orages  Givrage  Turbulence  Onde Orograph.  Cendres Volcan.







- Altitude de l'aérodrome : 587 ft
- Code IATA : XCR
- Voir les cartes d'approche


LFOK - Chalons Vatry

DERNIER METAR :
  • 191700Z AUTO 20003KT CAVOK 08/05 Q1022 NOSIG

METARs EXPIRÉS :
  • 191630Z AUTO 23003KT CAVOK 10/05 Q1022 NOSIG
  • 191600Z AUTO 23004KT CAVOK 11/05 Q1022 NOSIG
  • 191530Z AUTO 22005KT 9999 FEW020 10/05 Q1022 NOSIG
  • 191500Z AUTO 23006KT 9999 FEW025 10/05 Q1022 NOSIG
  • 191430Z AUTO 22004KT 200V260 9999 FEW023 BKN030 10/06 Q1022 NOSIG
  • 191400Z AUTO 23005KT 190V260 9999 OVC027 10/05 Q1022 NOSIG

TAF TAF LFOK
Valide du 19 à 12h jusqu'au 20 à 12h UTC


191100Z 1912/2012 23005KT 9999 BKN020
TEMPO 1912/1913 BKN010
BECMG 1920/1922 3000 BR
BECMG 2000/2003 0300 FG VV///
BECMG 2009/2011 8000 NSW BKN015
Pas de NOTAMs connus pour ce terrain.



MET'MAP, la Météo Aéronautique d'un coup d'oeil ! - Copyright ORBIFLY Décembre 2007 - Disclaimer

ORBIFLY MET'MAP TEAM :

Programmation & Développement : Alexandra Zaïnal
Conception & Développement : Baudouin d'Aumeries
Co-Programmation & Développement : Marc-Olivier Méhu
Soutien technique & logistique : Manuel Goepfert

Contact : metmap@orbifly.com




SOURCES & CREDITS :

   NOAA